Time;durP1;ratioP1;P1;durP2;ratioP2;P2;SDS_P1;SDS_P2;PMS_P1;PMS_P2;Temp;Humidity;BMP_temperature;BMP_pressure;BME280_temperature;BME280_humidity;BME280_pressure;Samples;Min_cycle;Max_cycle;Signal;HPM_P1;HPM_P2
2022/03/20 00:00:44;;;;;;;8.70;3.53;;;;;;;4.78;100.00;103200.06;5218011;28;20017;-78
2022/03/20 00:03:15;;;;;;;12.77;4.00;;;;;;;4.70;100.00;103192.44;5216129;28;20036;-78
2022/03/20 00:05:48;;;;;;;10.55;4.18;;;;;;;4.64;100.00;103182.09;5225763;28;20514;-78
2022/03/20 00:08:18;;;;;;;8.95;3.33;;;;;;;4.58;100.00;103185.03;5230243;28;20024;-78
2022/03/20 00:10:50;;;;;;;8.73;3.80;;;;;;;4.50;100.00;103169.41;5229347;28;20079;-78
2022/03/20 00:13:22;;;;;;;9.35;2.88;;;;;;;4.43;100.00;103169.78;5229350;28;20511;-78
2022/03/20 00:15:54;;;;;;;13.10;3.55;;;;;;;4.37;100.00;103168.28;5228698;28;20393;-78
2022/03/20 00:18:26;;;;;;;8.38;3.63;;;;;;;4.29;100.00;103165.94;5228549;28;20029;-79
2022/03/20 00:20:59;;;;;;;11.35;3.38;;;;;;;4.23;100.00;103160.06;5228746;28;20557;-78
2022/03/20 00:23:29;;;;;;;9.90;3.38;;;;;;;4.15;100.00;103153.28;5228776;28;20116;-77
2022/03/20 00:26:00;;;;;;;9.48;3.55;;;;;;;4.10;100.00;103152.59;5228491;28;20099;-77
2022/03/20 00:28:30;;;;;;;7.05;2.50;;;;;;;4.08;100.00;103153.63;5228630;28;20049;-78
2022/03/20 00:31:01;;;;;;;8.88;3.05;;;;;;;4.05;100.00;103153.75;5215065;28;20462;-78
2022/03/20 00:33:32;;;;;;;7.93;3.10;;;;;;;4.01;100.00;103142.38;5229410;28;20124;-78
2022/03/20 00:36:03;;;;;;;10.70;3.70;;;;;;;3.98;100.00;103133.72;5229182;28;20108;-77
2022/03/20 00:38:33;;;;;;;7.38;2.90;;;;;;;3.98;100.00;103131.06;5230004;28;20025;-78
2022/03/20 00:41:04;;;;;;;9.68;3.45;;;;;;;3.99;100.00;103119.50;5229001;28;20023;-78
2022/03/20 00:43:36;;;;;;;16.85;4.05;;;;;;;3.96;100.00;103115.16;5227209;28;20350;-78
2022/03/20 00:46:08;;;;;;;9.23;3.92;;;;;;;3.94;100.00;103117.03;5226545;28;20112;-78
2022/03/20 00:48:38;;;;;;;6.45;2.90;;;;;;;3.87;100.00;103115.59;5227343;28;20033;-78
2022/03/20 00:51:10;;;;;;;13.65;4.55;;;;;;;3.83;100.00;103114.88;5226720;28;20025;-78
2022/03/20 00:53:41;;;;;;;11.25;3.85;;;;;;;3.84;100.00;103105.09;5227246;28;20714;-78
2022/03/20 00:56:12;;;;;;;17.98;4.18;;;;;;;3.82;100.00;103101.66;5226244;28;20071;-76
2022/03/20 00:58:43;;;;;;;15.07;4.45;;;;;;;3.80;100.00;103104.38;5230113;28;20106;-79
2022/03/20 01:01:14;;;;;;;11.90;4.75;;;;;;;3.75;100.00;103098.38;5212553;28;20021;-77
2022/03/20 01:03:44;;;;;;;21.25;4.90;;;;;;;3.70;100.00;103091.56;5214632;28;20081;-77
2022/03/20 01:06:17;;;;;;;10.77;4.53;;;;;;;3.65;100.00;103094.41;5226919;28;20102;-77
2022/03/20 01:08:49;;;;;;;15.13;5.22;;;;;;;3.60;100.00;103085.78;5227008;28;20028;-77
2022/03/20 01:11:19;;;;;;;13.48;4.90;;;;;;;3.59;100.00;103082.28;5226209;28;20025;-77
2022/03/20 01:13:50;;;;;;;10.23;5.13;;;;;;;3.57;100.00;103086.81;5226537;28;20036;-77
2022/03/20 01:16:20;;;;;;;18.17;4.50;;;;;;;3.55;100.00;103074.50;5225784;28;20029;-77
2022/03/20 01:18:51;;;;;;;16.38;5.45;;;;;;;3.51;100.00;103068.47;5226126;28;20481;-77
2022/03/20 01:21:21;;;;;;;14.38;5.50;;;;;;;3.50;100.00;103068.53;5226263;28;20020;-77
2022/03/20 01:23:52;;;;;;;17.23;5.40;;;;;;;3.44;100.00;103068.81;5226206;28;20112;-77
2022/03/20 01:26:22;;;;;;;13.52;5.40;;;;;;;3.40;100.00;103061.91;5225463;28;20036;-77
2022/03/20 01:28:52;;;;;;;11.43;4.57;;;;;;;3.34;100.00;103053.28;5226168;28;20025;-77
2022/03/20 01:31:23;;;;;;;13.40;5.47;;;;;;;3.25;100.00;103045.69;5225454;28;20396;-77
2022/03/20 01:33:54;;;;;;;14.00;5.40;;;;;;;3.21;100.00;103046.75;5226090;28;20029;-77
2022/03/20 01:36:25;;;;;;;12.45;5.38;;;;;;;3.18;100.00;103036.28;5225808;28;20025;-77
2022/03/20 01:38:56;;;;;;;15.25;4.80;;;;;;;3.15;100.00;103036.41;5226174;28;20446;-77
2022/03/20 01:41:27;;;;;;;12.52;5.20;;;;;;;3.13;100.00;103025.03;5225699;28;20021;-77
2022/03/20 01:44:01;;;;;;;13.25;5.68;;;;;;;3.12;100.00;103025.94;5225553;28;20040;-77
2022/03/20 01:46:32;;;;;;;19.33;6.57;;;;;;;3.11;100.00;103018.91;5225292;28;20447;-77
2022/03/20 01:49:02;;;;;;;17.70;6.68;;;;;;;3.16;100.00;103016.91;5225805;28;20049;-77
2022/03/20 01:54:22;;;;;;;18.45;7.45;;;;;;;3.19;100.00;103010.63;5224888;28;20024;-77
2022/03/20 01:56:52;;;;;;;21.58;8.68;;;;;;;3.15;100.00;103003.72;5225694;28;20039;-77
2022/03/20 01:59:23;;;;;;;17.25;6.18;;;;;;;3.13;100.00;103003.81;5225267;28;20025;-77
2022/03/20 02:01:54;;;;;;;16.42;6.55;;;;;;;3.08;100.00;103001.34;5198010;28;20014;-77
2022/03/20 02:04:25;;;;;;;19.15;6.45;;;;;;;3.04;100.00;102997.09;5204268;28;20032;-77
2022/03/20 02:06:56;;;;;;;18.70;6.25;;;;;;;2.99;100.00;102982.31;5225235;28;20028;-77
2022/03/20 02:09:26;;;;;;;15.60;7.75;;;;;;;2.95;100.00;102978.06;5225538;28;20025;-77
2022/03/20 02:11:58;;;;;;;22.95;7.68;;;;;;;2.89;100.00;102978.31;5225530;28;20025;-77
2022/03/20 02:14:31;;;;;;;14.55;6.63;;;;;;;2.83;100.00;102964.41;5224830;28;20040;-77
2022/03/20 02:17:02;;;;;;;14.93;5.68;;;;;;;2.80;100.00;102961.00;5225267;28;20052;-77
2022/03/20 02:19:35;;;;;;;14.40;6.20;;;;;;;2.77;100.00;102954.06;5224725;28;20456;-77
2022/03/20 02:22:06;;;;;;;18.50;6.45;;;;;;;2.75;100.00;102953.25;5225346;28;20071;-77
2022/03/20 02:24:41;;;;;;;20.48;5.53;;;;;;;2.78;100.00;102949.59;5224635;28;20016;-77
2022/03/20 02:27:16;;;;;;;15.43;5.63;;;;;;;2.81;100.00;102952.13;5225850;28;20052;-77
2022/03/20 02:30:03;;;;;;;14.23;5.50;;;;;;;2.84;100.00;102944.03;5223387;28;20460;-77
2022/03/20 02:32:34;;;;;;;12.70;6.50;;;;;;;2.83;100.00;102943.19;5225004;28;20499;-77
2022/03/20 02:35:06;;;;;;;25.88;7.93;;;;;;;2.84;100.00;102946.69;5224442;28;20025;-77
2022/03/20 02:37:40;;;;;;;14.13;6.43;;;;;;;2.87;100.00;102943.94;5223981;28;20021;-77
2022/03/20 02:40:11;;;;;;;19.63;5.95;;;;;;;2.89;100.00;102942.06;5224651;28;20033;-77
2022/03/20 02:42:45;;;;;;;11.52;5.75;;;;;;;2.89;100.00;102933.25;5224911;28;20021;-77
2022/03/20 02:45:20;;;;;;;15.55;6.00;;;;;;;2.92;100.00;102930.47;5224311;28;20646;-77
2022/03/20 02:47:51;;;;;;;13.65;6.22;;;;;;;2.89;100.00;102931.44;5225114;28;20024;-77
2022/03/20 02:50:27;;;;;;;12.55;5.35;;;;;;;2.88;100.00;102928.88;5224661;28;20016;-77
2022/03/20 02:53:02;;;;;;;15.15;6.03;;;;;;;2.86;100.00;102926.28;5224754;28;20029;-77
2022/03/20 02:55:36;;;;;;;17.38;5.43;;;;;;;2.83;100.00;102927.28;5223099;28;20033;-77
2022/03/20 02:58:10;;;;;;;17.98;6.18;;;;;;;2.81;100.00;102918.53;5225263;28;20083;-77
2022/03/20 03:00:43;;;;;;;19.67;5.70;;;;;;;2.77;100.00;102919.59;5214078;28;20060;-77
2022/03/20 03:03:14;;;;;;;17.13;6.03;;;;;;;2.74;100.00;102910.91;5209906;28;20018;-77
2022/03/20 03:05:46;;;;;;;19.60;6.95;;;;;;;2.71;100.00;102908.38;5221975;28;20048;-77
2022/03/20 03:11:06;;;;;;;18.13;6.95;;;;;;;2.75;100.00;102904.66;5224394;28;20033;-77
2022/03/20 03:13:39;;;;;;;29.30;8.07;;;;;;;2.75;100.00;102896.72;5224472;28;20541;-77
2022/03/20 03:16:13;;;;;;;18.08;6.70;;;;;;;2.75;100.00;102892.28;5224396;28;20481;-77
2022/03/20 03:18:45;;;;;;;23.33;8.43;;;;;;;2.81;100.00;102894.69;5224597;28;20025;-77
2022/03/20 03:21:17;;;;;;;21.90;8.85;;;;;;;2.81;100.00;102894.69;5224652;28;20495;-77
2022/03/20 03:23:47;;;;;;;19.70;8.15;;;;;;;2.83;100.00;102889.31;5224681;28;20039;-77
2022/03/20 03:26:18;;;;;;;20.70;9.40;;;;;;;2.84;100.00;102883.94;5223660;28;20025;-77
2022/03/20 03:28:48;;;;;;;20.15;8.75;;;;;;;2.83;100.00;102874.25;5228591;28;20063;-77
2022/03/20 03:31:18;;;;;;;24.95;10.43;;;;;;;2.85;100.00;102874.19;5228010;28;20056;-77
2022/03/20 03:36:38;;;;;;;26.63;11.30;;;;;;;2.89;100.00;102859.00;5228225;28;20048;-77
2022/03/20 03:39:09;;;;;;;26.55;10.75;;;;;;;2.91;100.00;102858.00;5226758;28;20056;-76
2022/03/20 03:41:40;;;;;;;32.28;12.52;;;;;;;2.96;100.00;102849.84;5228176;28;20024;-76
2022/03/20 03:44:11;;;;;;;27.48;11.88;;;;;;;2.99;100.00;102857.69;5227550;28;20492;-76
2022/03/20 03:46:41;;;;;;;26.35;12.55;;;;;;;3.05;100.00;102865.34;5229127;28;20025;-78
2022/03/20 03:49:12;;;;;;;27.85;12.13;;;;;;;3.11;100.00;102865.06;5228482;28;20458;-78
2022/03/20 03:51:42;;;;;;;28.73;11.95;;;;;;;3.15;100.00;102858.72;5228312;28;20531;-77
2022/03/20 03:54:13;;;;;;;24.45;12.00;;;;;;;3.22;100.00;102852.22;5227851;28;20044;-77
2022/03/20 03:56:43;;;;;;;32.28;12.90;;;;;;;3.28;100.00;102857.22;5228362;28;20017;-77
2022/03/20 03:59:13;;;;;;;32.92;13.13;;;;;;;3.34;100.00;102843.69;5228020;28;20498;-77
2022/03/20 04:01:44;;;;;;;31.77;13.32;;;;;;;3.38;100.00;102842.59;5208762;28;20501;-77
2022/03/20 04:04:14;;;;;;;30.40;13.98;;;;;;;3.42;100.00;102842.47;5219494;28;20376;-76
2022/03/20 04:06:45;;;;;;;26.88;12.75;;;;;;;3.45;100.00;102831.69;5228353;28;20021;-77
2022/03/20 04:09:15;;;;;;;31.50;13.48;;;;;;;3.47;100.00;102833.38;5228247;28;20029;-77
2022/03/20 04:11:46;;;;;;;30.92;13.38;;;;;;;3.47;100.00;102833.38;5228246;28;20082;-77
2022/03/20 04:14:17;;;;;;;32.58;14.07;;;;;;;3.48;100.00;102837.75;5227966;28;20380;-78
2022/03/20 04:16:48;;;;;;;32.05;13.75;;;;;;;3.49;100.00;102834.16;5217733;28;20017;-78
2022/03/20 04:19:19;;;;;;;31.70;14.55;;;;;;;3.48;100.00;102839.53;5230277;28;20036;-82
2022/03/20 04:21:50;;;;;;;38.10;14.18;;;;;;;3.44;100.00;102844.13;5229233;28;20029;-77
2022/03/20 04:24:20;;;;;;;32.30;14.70;;;;;;;3.36;100.00;102843.59;5226626;28;20032;-77
2022/03/20 04:26:51;;;;;;;44.55;14.30;;;;;;;3.27;100.00;102839.59;5227802;28;20036;-77
2022/03/20 04:29:22;;;;;;;29.50;14.75;;;;;;;3.23;100.00;102838.00;5227446;28;20082;-77
2022/03/20 04:31:54;;;;;;;33.97;16.15;;;;;;;3.21;100.00;102842.50;5226784;28;20469;-77
2022/03/20 04:34:26;;;;;;;28.42;14.60;;;;;;;3.22;100.00;102820.38;5226786;28;20021;-77
2022/03/20 04:36:57;;;;;;;32.03;14.05;;;;;;;3.23;100.00;102814.13;5226128;28;20039;-77
2022/03/20 04:39:27;;;;;;;38.92;15.80;;;;;;;3.25;100.00;102817.56;5226416;28;20025;-77
2022/03/20 04:41:58;;;;;;;39.72;15.70;;;;;;;3.26;100.00;102807.81;5227205;28;20112;-77
2022/03/20 04:44:29;;;;;;;40.38;15.07;;;;;;;3.22;100.00;102804.47;5226345;28;20119;-77
2022/03/20 04:46:59;;;;;;;35.35;15.43;;;;;;;3.16;100.00;102807.38;5227364;28;20036;-77
2022/03/20 05:00:45;;;;;;;41.58;17.63;;;;;;;2.99;100.00;102786.94;5215205;28;20105;-77
2022/03/20 05:03:16;;;;;;;37.75;16.60;;;;;;;3.00;100.00;102787.81;5212100;28;20545;-77
2022/03/20 05:05:47;;;;;;;38.00;17.15;;;;;;;2.99;100.00;102792.25;5223892;28;20033;-77
2022/03/20 05:08:17;;;;;;;39.63;17.00;;;;;;;2.98;100.00;102793.19;5226895;28;20380;-77
2022/03/20 05:13:36;;;;;;;40.53;18.05;;;;;;;3.01;100.00;102785.09;5226614;28;20029;-77
2022/03/20 05:16:08;;;;;;;39.97;16.63;;;;;;;3.04;100.00;102786.72;5226026;28;20109;-77
2022/03/20 05:18:38;;;;;;;39.33;17.92;;;;;;;3.05;100.00;102783.16;5226800;28;20032;-77
2022/03/20 05:21:10;;;;;;;33.85;16.75;;;;;;;3.06;100.00;102779.56;5226314;28;20054;-77
2022/03/20 05:23:41;;;;;;;39.15;17.35;;;;;;;3.05;100.00;102781.34;5226543;28;20021;-77
2022/03/20 05:26:11;;;;;;;41.08;17.85;;;;;;;3.04;100.00;102781.44;5225974;28;20024;-77
2022/03/20 05:28:41;;;;;;;40.47;17.80;;;;;;;3.01;100.00;102769.19;5226116;28;20048;-77
2022/03/20 05:31:12;;;;;;;35.40;17.10;;;;;;;3.03;100.00;102769.97;5225619;28;20456;-77
2022/03/20 05:33:43;;;;;;;42.28;18.98;;;;;;;3.07;100.00;102768.03;5226375;28;20109;-77
2022/03/20 05:36:14;;;;;;;44.20;18.38;;;;;;;3.10;100.00;102765.22;5225655;28;20017;-77
2022/03/20 05:38:44;;;;;;;39.15;18.35;;;;;;;3.14;100.00;102773.91;5226289;28;20553;-77
2022/03/20 05:44:04;;;;;;;40.78;18.67;;;;;;;3.20;100.00;102755.91;5225937;28;20035;-77
2022/03/20 05:46:34;;;;;;;35.40;17.40;;;;;;;3.23;100.00;102763.75;5225628;28;20385;-77
2022/03/20 05:49:05;;;;;;;43.78;18.67;;;;;;;3.27;100.00;102752.06;5225787;28;20500;-77
2022/03/20 05:51:37;;;;;;;42.92;17.60;;;;;;;3.31;100.00;102758.94;5225658;28;20112;-77
2022/03/20 05:54:07;;;;;;;43.90;17.83;;;;;;;3.35;100.00;102759.63;5225393;28;20033;-77
2022/03/20 05:59:27;;;;;;;44.63;18.48;;;;;;;3.42;100.00;102747.81;5225214;28;20119;-76
2022/03/20 06:01:58;;;;;;;37.28;18.15;;;;;;;3.42;100.00;102746.97;5206694;28;20113;-76
2022/03/20 06:04:29;;;;;;;38.55;18.10;;;;;;;3.44;100.00;102743.28;5218304;28;20120;-81
2022/03/20 06:06:59;;;;;;;42.90;18.67;;;;;;;3.42;100.00;102752.25;5227833;28;20043;-81
2022/03/20 06:09:30;;;;;;;51.22;19.23;;;;;;;3.43;100.00;102753.97;5226222;28;20027;-79
2022/03/20 06:12:00;;;;;;;42.08;19.08;;;;;;;3.40;100.00;102757.63;5212979;28;20460;-82
2022/03/20 06:14:32;;;;;;;44.88;18.92;;;;;;;3.40;100.00;102754.13;5228677;28;20024;-75
2022/03/20 06:17:05;;;;;;;45.90;18.45;;;;;;;3.33;100.00;102754.41;5225486;28;20400;-76
2022/03/20 06:19:36;;;;;;;39.70;18.40;;;;;;;3.33;100.00;102748.25;5225358;28;20074;-75
2022/03/20 06:22:07;;;;;;;41.50;18.77;;;;;;;3.33;100.00;102745.59;5225298;28;20013;-75
2022/03/20 06:24:37;;;;;;;37.33;18.67;;;;;;;3.35;100.00;102746.38;5225899;28;20032;-79
2022/03/20 06:27:07;;;;;;;41.35;19.33;;;;;;;3.35;100.00;102738.41;5225890;28;20017;-76
2022/03/20 06:29:38;;;;;;;44.63;19.25;;;;;;;3.40;100.00;102746.16;5225660;28;20029;-74
2022/03/20 06:32:08;;;;;;;47.70;18.90;;;;;;;3.42;100.00;102737.19;5213494;28;20074;-74
2022/03/20 06:34:39;;;;;;;42.70;18.17;;;;;;;3.47;100.00;102729.88;5224323;28;20029;-75
2022/03/20 06:37:09;;;;;;;41.45;20.35;;;;;;;3.52;100.00;102727.84;5214218;28;20595;-75
2022/03/20 06:39:40;;;;;;;44.28;19.63;;;;;;;3.54;100.00;102733.94;5201911;28;20067;-78
2022/03/20 06:42:11;;;;;;;39.67;17.90;;;;;;;3.53;100.00;102734.88;5210085;28;20025;-77
2022/03/20 06:44:41;;;;;;;48.30;21.98;;;;;;;3.57;100.00;102732.94;5222901;28;20485;-75
2022/03/20 06:47:12;;;;;;;42.85;19.45;;;;;;;3.59;100.00;102739.03;5222726;28;20396;-80
2022/03/20 06:49:43;;;;;;;43.35;20.58;;;;;;;3.61;100.00;102738.03;5224535;28;20049;-78
2022/03/20 06:52:13;;;;;;;40.67;18.95;;;;;;;3.60;100.00;102735.44;5216624;28;20382;-77
2022/03/20 06:54:44;;;;;;;40.60;18.25;;;;;;;3.62;100.00;102731.78;5224081;28;20021;-78
2022/03/20 06:57:18;;;;;;;43.42;18.80;;;;;;;3.60;100.00;102740.75;5225716;28;20033;-78
2022/03/20 06:59:49;;;;;;;46.13;20.25;;;;;;;3.57;100.00;102757.69;5221136;28;20028;-76
2022/03/20 07:02:20;;;;;;;48.35;21.58;;;;;;;3.42;100.00;102774.34;5211118;28;20020;-79
2022/03/20 07:04:51;;;;;;;57.90;23.75;;;;;;;2.83;100.00;102765.56;5220775;28;20535;-78
2022/03/20 07:07:23;;;;;;;60.67;25.75;;;;;;;2.41;100.00;102773.66;5229527;28;20029;-78
2022/03/20 07:09:53;;;;;;;56.40;25.48;;;;;;;2.14;100.00;102775.66;5228902;28;20058;-78
2022/03/20 07:12:24;;;;;;;57.33;25.58;;;;;;;1.86;100.00;102777.72;5228856;28;20021;-78
2022/03/20 07:14:55;;;;;;;71.78;29.48;;;;;;;1.63;100.00;102773.38;5228232;28;20374;-76
2022/03/20 07:17:25;;;;;;;68.43;30.05;;;;;;;1.52;100.00;102771.19;5228978;28;20029;-78
2022/03/20 07:19:58;;;;;;;65.88;28.58;;;;;;;1.47;100.00;102749.34;5229063;28;20488;-78
2022/03/20 07:22:28;;;;;;;70.05;29.75;;;;;;;1.48;100.00;102745.75;5229166;28;20392;-78
2022/03/20 07:29:29;;;;;;;80.15;33.53;;;;;;;1.43;100.00;102739.78;5217957;28;20021;-78
2022/03/20 07:30:38;;;;;;;73.07;30.70;;;;;;;1.45;100.00;102735.28;5217845;28;20036;-78
2022/03/20 07:33:10;;;;;;;82.47;33.97;;;;;;;1.58;100.00;102730.38;5224563;28;20021;-78
2022/03/20 07:35:42;;;;;;;76.45;33.45;;;;;;;1.77;100.00;102728.72;5228098;28;20538;-77
2022/03/20 07:38:12;;;;;;;80.30;35.10;;;;;;;2.06;100.00;102724.84;5228060;28;20056;-78
2022/03/20 07:40:43;;;;;;;77.18;32.95;;;;;;;2.34;100.00;102717.41;5227964;28;20052;-78
2022/03/20 07:43:13;;;;;;;84.10;35.78;;;;;;;2.74;100.00;102715.63;5228184;28;20057;-78
2022/03/20 07:45:44;;;;;;;81.30;34.28;;;;;;;3.11;100.00;102706.84;5227460;28;20033;-77
2022/03/20 07:48:14;;;;;;;79.13;35.45;;;;;;;3.72;100.00;102707.44;5227963;28;20021;-77
2022/03/20 07:50:45;;;;;;;74.85;32.33;;;;;;;4.23;100.00;102706.56;5227775;28;20435;-77
2022/03/20 07:53:17;;;;;;;62.85;31.55;;;;;;;4.24;100.00;102704.78;5227813;28;20599;-77
2022/03/20 07:55:48;;;;;;;59.17;29.00;;;;;;;4.24;100.00;102710.94;5227396;28;20111;-78
2022/03/20 07:58:20;;;;;;;57.08;28.10;;;;;;;4.09;100.00;102701.13;5227303;28;20291;-76
2022/03/20 08:00:50;;;;;;;65.53;30.13;;;;;;;4.05;100.00;102697.75;5215505;28;20033;-77
2022/03/20 08:03:20;;;;;;;74.72;30.48;;;;;;;4.26;100.00;102694.91;5212907;28;20052;-77
2022/03/20 08:05:51;;;;;;;61.03;27.00;;;;;;;5.03;100.00;102694.31;5226015;28;20032;-77
2022/03/20 08:08:21;;;;;;;58.20;28.52;;;;;;;5.81;100.00;102698.66;5227817;28;20032;-77
2022/03/20 08:10:52;;;;;;;57.97;25.65;;;;;;;6.73;100.00;102687.81;5227528;28;20033;-77
2022/03/20 08:13:22;;;;;;;47.38;23.67;;;;;;;7.42;100.00;102689.53;5225854;28;20027;-77
2022/03/20 08:15:53;;;;;;;50.88;25.08;;;;;;;7.60;100.00;102683.94;5226856;28;20045;-77
2022/03/20 08:18:23;;;;;;;51.30;24.98;;;;;;;7.12;100.00;102672.84;5227348;28;20461;-77
2022/03/20 08:20:54;;;;;;;50.35;26.25;;;;;;;6.61;100.00;102668.06;5227363;28;20020;-80
2022/03/20 08:23:25;;;;;;;56.25;28.05;;;;;;;6.40;100.00;102672.06;5227869;28;20043;-78
2022/03/20 08:25:55;;;;;;;52.55;26.90;;;;;;;6.11;100.00;102676.50;5226714;28;20025;-77
2022/03/20 08:28:26;;;;;;;53.67;25.70;;;;;;;5.81;100.00;102671.19;5227452;28;20032;-77
2022/03/20 08:30:57;;;;;;;51.20;25.55;;;;;;;5.71;100.00;102670.88;5215063;28;20041;-77
2022/03/20 08:33:27;;;;;;;56.90;26.60;;;;;;;5.56;100.00;102671.75;5224861;28;20017;-77
2022/03/20 08:35:59;;;;;;;54.17;26.88;;;;;;;5.67;100.00;102671.97;5226778;28;20086;-76
2022/03/20 08:38:29;;;;;;;58.47;27.33;;;;;;;5.91;100.00;102667.91;5226917;28;20025;-77
2022/03/20 08:41:00;;;;;;;58.65;26.25;;;;;;;6.02;100.00;102663.75;5226800;28;20103;-77
2022/03/20 08:43:31;;;;;;;53.08;25.58;;;;;;;5.88;100.00;102660.09;5217999;28;20048;-77
2022/03/20 08:46:02;;;;;;;48.58;23.92;;;;;;;5.85;100.00;102654.94;5220389;28;20025;-77
2022/03/20 08:48:32;;;;;;;46.97;23.48;;;;;;;5.70;100.00;102663.81;5226748;28;20032;-77
2022/03/20 08:51:03;;;;;;;51.15;24.80;;;;;;;5.55;100.00;102660.25;5222752;28;20434;-76
2022/03/20 08:53:33;;;;;;;46.70;24.35;;;;;;;5.92;100.00;102650.13;5217356;28;20440;-77
2022/03/20 08:56:04;;;;;;;55.60;26.52;;;;;;;6.05;100.00;102656.44;5212847;28;20060;-77
2022/03/20 08:58:35;;;;;;;49.90;24.70;;;;;;;6.06;100.00;102651.94;5226969;28;20366;-76
2022/03/20 09:01:06;;;;;;;45.58;23.05;;;;;;;5.80;100.00;102646.34;5212246;28;20032;-77
2022/03/20 09:03:37;;;;;;;49.47;24.20;;;;;;;5.78;100.00;102650.94;5211289;28;20049;-76
2022/03/20 09:06:07;;;;;;;45.22;23.33;;;;;;;5.67;100.00;102650.69;5225925;28;20604;-76
2022/03/20 09:08:38;;;;;;;56.65;24.08;;;;;;;5.75;100.00;102651.09;5226380;28;20111;-77
2022/03/20 09:11:08;;;;;;;55.38;23.88;;;;;;;5.86;100.00;102645.13;5208275;28;20117;-76
2022/03/20 09:13:39;;;;;;;53.72;23.23;;;;;;;6.05;100.00;102632.44;5226247;28;20060;-76
2022/03/20 09:18:59;;;;;;;45.38;23.00;;;;;;;6.20;100.00;102631.50;5226354;28;20569;-77
2022/03/20 09:21:33;;;;;;;50.33;22.45;;;;;;;5.82;100.00;102631.13;5225932;28;20053;-77
2022/03/20 09:24:06;;;;;;;46.17;23.17;;;;;;;5.63;100.00;102633.19;5225415;28;20037;-77
2022/03/20 09:26:37;;;;;;;47.08;23.23;;;;;;;5.57;100.00;102637.09;5225828;28;20035;-77
2022/03/20 09:29:07;;;;;;;49.10;23.25;;;;;;;5.53;100.00;102635.53;5224710;28;20534;-77
2022/03/20 09:31:38;;;;;;;45.55;22.25;;;;;;;5.49;100.00;102638.47;5225588;28;20033;-80
2022/03/20 09:34:09;;;;;;;49.47;23.27;;;;;;;5.43;100.00;102627.22;5225931;28;20488;-76
2022/03/20 09:36:39;;;;;;;48.45;22.20;;;;;;;5.44;100.00;102628.09;5225844;28;20032;-77
2022/03/20 09:39:10;;;;;;;51.70;23.15;;;;;;;5.43;100.00;102627.22;5225658;28;20036;-76
2022/03/20 09:41:42;;;;;;;49.70;24.27;;;;;;;5.50;100.00;102633.03;5224582;28;20029;-77
2022/03/20 09:44:15;;;;;;;52.05;22.95;;;;;;;5.61;100.00;102627.09;5224763;28;20108;-77
2022/03/20 09:46:45;;;;;;;45.38;22.50;;;;;;;5.68;100.00;102625.78;5225865;28;20040;-77
2022/03/20 09:49:18;;;;;;;47.38;22.42;;;;;;;5.94;100.00;102614.44;5224100;28;20025;-77
2022/03/20 09:51:48;;;;;;;51.67;24.17;;;;;;;6.39;100.00;102615.25;5225519;28;20155;-77
2022/03/20 09:54:19;;;;;;;48.42;22.75;;;;;;;6.98;100.00;102615.91;5223774;28;20482;-77
2022/03/20 09:56:51;;;;;;;45.40;23.00;;;;;;;7.69;100.00;102617.41;5225719;28;20504;-77
2022/03/20 09:59:22;;;;;;;45.17;22.38;;;;;;;8.12;100.00;102614.44;5225086;28;20017;-77
2022/03/20 10:01:53;;;;;;;44.33;22.45;;;;;;;8.53;100.00;102610.66;5204671;28;20063;-77
2022/03/20 10:04:23;;;;;;;45.15;23.00;;;;;;;8.68;100.00;102608.72;5216565;28;20064;-77
2022/03/20 10:06:54;;;;;;;47.63;23.45;;;;;;;9.27;100.00;102607.00;5224303;28;20025;-77
2022/03/20 10:09:24;;;;;;;44.35;22.83;;;;;;;9.46;100.00;102603.78;5225022;28;20020;-77
2022/03/20 10:11:57;;;;;;;40.78;22.38;;;;;;;9.24;100.00;102607.25;5225003;28;20111;-77
2022/03/20 10:14:29;;;;;;;45.28;22.40;;;;;;;9.31;100.00;102603.13;5224433;28;20825;-77
2022/03/20 10:17:18;;;;;;;43.05;22.27;;;;;;;9.26;100.00;102613.31;5225126;28;20028;-77
2022/03/20 10:19:49;;;;;;;37.25;20.92;;;;;;;9.14;100.00;102610.72;5225346;28;20554;-77
2022/03/20 10:22:19;;;;;;;37.65;20.98;;;;;;;9.20;100.00;102611.09;5225053;28;20029;-78
2022/03/20 10:24:51;;;;;;;45.85;21.70;;;;;;;9.37;100.00;102606.31;5224241;28;20024;-77
2022/03/20 10:27:22;;;;;;;44.22;22.20;;;;;;;9.18;100.00;102610.34;5225923;28;20044;-78
2022/03/20 10:29:55;;;;;;;44.42;21.63;;;;;;;9.10;100.00;102607.41;5225444;28;20052;-78
2022/03/20 10:32:26;;;;;;;36.78;20.05;;;;;;;9.05;100.00;102605.06;5225354;28;20408;-78
2022/03/20 10:34:58;;;;;;;40.00;20.92;;;;;;;9.14;100.00;102608.91;5224649;28;20033;-78
2022/03/20 10:37:45;;;;;;;42.30;21.92;;;;;;;9.26;100.00;102599.06;5223118;28;20024;-78
2022/03/20 10:40:19;;;;;;;38.80;21.13;;;;;;;8.80;100.00;102605.16;5225064;28;20489;-78
2022/03/20 10:43:10;;;;;;;43.90;21.30;;;;;;;8.79;100.00;102598.97;5225309;28;20070;-78
2022/03/20 10:46:00;;;;;;;45.55;21.75;;;;;;;8.89;100.00;102599.16;5223998;28;20032;-78
2022/03/20 10:48:48;;;;;;;41.63;20.58;;;;;;;9.14;100.00;102600.00;5224834;28;20392;-78
2022/03/20 10:51:46;;;;;;;39.58;20.50;;;;;;;8.81;100.00;102597.00;5223391;28;20032;-78
2022/03/20 10:54:20;;;;;;;42.00;21.60;;;;;;;9.02;100.00;102601.75;5224202;28;20037;-78
2022/03/20 10:56:53;;;;;;;39.80;21.37;;;;;;;8.98;100.00;102600.25;5226175;28;20056;-78
2022/03/20 10:59:25;;;;;;;44.83;21.45;;;;;;;9.07;100.00;102589.72;5225746;28;20029;-78
2022/03/20 11:01:57;;;;;;;40.95;21.17;;;;;;;9.08;100.00;102601.28;5206789;28;20025;-78
2022/03/20 11:04:29;;;;;;;41.15;22.00;;;;;;;8.87;100.00;102602.88;5216489;28;20574;-83
2022/03/20 11:07:00;;;;;;;38.80;20.33;;;;;;;9.10;100.00;102607.41;5223994;28;20561;-79
2022/03/20 11:09:31;;;;;;;39.83;20.70;;;;;;;8.92;100.00;102604.25;5224280;28;20501;-77
2022/03/20 11:12:07;;;;;;;35.53;20.75;;;;;;;8.92;100.00;102604.25;5224265;28;20064;-77
2022/03/20 11:14:38;;;;;;;45.20;22.40;;;;;;;9.29;100.00;102599.72;5223756;28;20175;-77
2022/03/20 11:17:12;;;;;;;40.08;21.88;;;;;;;8.98;100.00;102600.25;5224569;28;20116;-77
2022/03/20 11:19:49;;;;;;;39.70;21.25;;;;;;;9.06;100.00;102608.59;5224454;28;20025;-77
2022/03/20 11:22:21;;;;;;;41.90;21.23;;;;;;;9.43;100.00;102606.69;5223186;28;20071;-77
2022/03/20 11:24:55;;;;;;;37.80;20.88;;;;;;;9.38;100.00;102599.97;5222568;28;20071;-77
2022/03/20 11:27:30;;;;;;;40.57;21.57;;;;;;;9.37;100.00;102598.28;5224394;28;20028;-77
2022/03/20 11:30:02;;;;;;;40.22;22.23;;;;;;;9.68;100.00;102604.81;5219699;28;20017;-77
2022/03/20 11:32:34;;;;;;;38.58;21.02;;;;;;;10.02;98.79;102603.06;5214378;28;20152;-77
2022/03/20 11:35:05;;;;;;;40.42;20.90;;;;;;;9.87;98.54;102605.13;5223559;28;20032;-77
2022/03/20 11:37:47;;;;;;;40.30;22.08;;;;;;;9.77;100.00;102606.81;5224295;28;20527;-77
2022/03/20 11:40:21;;;;;;;36.30;20.40;;;;;;;9.17;100.00;102607.78;5224023;28;20079;-77
2022/03/20 11:43:14;;;;;;;42.38;21.83;;;;;;;8.87;100.00;102614.44;5224206;28;20113;-77
2022/03/20 11:49:29;;;;;;;40.03;21.70;;;;;;;9.98;92.58;102594.41;5227508;28;20032;-77
2022/03/20 11:52:01;;;;;;;44.20;21.70;;;;;;;9.85;100.00;102607.06;5227985;28;20404;-77
2022/03/20 11:54:50;;;;;;;37.20;20.88;;;;;;;10.06;95.37;102600.03;5227266;28;20037;-77
2022/03/20 11:57:40;;;;;;;38.97;21.27;;;;;;;10.23;88.84;102604.06;5227770;28;20052;-76
2022/03/20 12:00:18;;;;;;;39.88;21.73;;;;;;;10.36;85.56;102598.63;5220957;28;20104;-76
2022/03/20 12:03:09;;;;;;;41.22;22.65;;;;;;;10.52;87.26;102600.94;5199694;28;20035;-76
2022/03/20 12:05:41;;;;;;;41.20;21.08;;;;;;;10.49;89.46;102604.72;5224081;28;20028;-76
2022/03/20 12:08:28;;;;;;;45.30;22.65;;;;;;;10.24;96.01;102599.56;5227969;28;20021;-76
2022/03/20 12:11:20;;;;;;;39.67;20.38;;;;;;;9.86;91.92;102603.41;5227112;28;20052;-76